sensor_id;sensor_type;location;lat;lon;timestamp;P1;durP1;ratioP1;P2;durP2;ratioP2
828;SDS011;396;52.558;13.188;2023-04-09T00:00:42;20.60;;;9.07;;
828;SDS011;396;52.558;13.188;2023-04-09T00:03:08;20.90;;;8.97;;
828;SDS011;396;52.558;13.188;2023-04-09T00:05:37;20.27;;;9.03;;
828;SDS011;396;52.558;13.188;2023-04-09T00:08:04;19.23;;;8.57;;
828;SDS011;396;52.558;13.188;2023-04-09T00:10:31;19.20;;;9.80;;
828;SDS011;396;52.558;13.188;2023-04-09T00:12:59;19.23;;;9.50;;
828;SDS011;396;52.558;13.188;2023-04-09T00:15:26;20.67;;;10.90;;
828;SDS011;396;52.558;13.188;2023-04-09T00:17:52;19.20;;;9.43;;
828;SDS011;396;52.558;13.188;2023-04-09T00:20:20;27.43;;;10.40;;
828;SDS011;396;52.558;13.188;2023-04-09T00:22:46;23.03;;;10.37;;
828;SDS011;396;52.558;13.188;2023-04-09T00:25:14;20.17;;;9.37;;
828;SDS011;396;52.558;13.188;2023-04-09T00:27:41;27.23;;;11.03;;
828;SDS011;396;52.558;13.188;2023-04-09T00:30:09;22.50;;;10.90;;
828;SDS011;396;52.558;13.188;2023-04-09T00:32:36;23.43;;;9.87;;
828;SDS011;396;52.558;13.188;2023-04-09T00:35:03;22.00;;;9.53;;
828;SDS011;396;52.558;13.188;2023-04-09T00:37:30;21.27;;;8.83;;
828;SDS011;396;52.558;13.188;2023-04-09T00:39:57;21.37;;;9.33;;
828;SDS011;396;52.558;13.188;2023-04-09T00:42:23;21.33;;;9.30;;
828;SDS011;396;52.558;13.188;2023-04-09T00:44:50;17.93;;;8.53;;
828;SDS011;396;52.558;13.188;2023-04-09T00:47:18;25.37;;;8.90;;
828;SDS011;396;52.558;13.188;2023-04-09T00:49:45;21.17;;;9.70;;
828;SDS011;396;52.558;13.188;2023-04-09T00:52:11;15.10;;;7.93;;
828;SDS011;396;52.558;13.188;2023-04-09T00:54:38;17.63;;;8.23;;
828;SDS011;396;52.558;13.188;2023-04-09T00:57:05;22.47;;;9.70;;
828;SDS011;396;52.558;13.188;2023-04-09T00:59:32;24.73;;;10.43;;
828;SDS011;396;52.558;13.188;2023-04-09T01:01:58;24.07;;;10.57;;
828;SDS011;396;52.558;13.188;2023-04-09T01:04:26;24.07;;;10.40;;
828;SDS011;396;52.558;13.188;2023-04-09T01:06:54;20.47;;;9.57;;
828;SDS011;396;52.558;13.188;2023-04-09T01:09:31;23.10;;;10.47;;
828;SDS011;396;52.558;13.188;2023-04-09T01:12:01;24.80;;;9.03;;
828;SDS011;396;52.558;13.188;2023-04-09T01:14:38;21.60;;;9.27;;
828;SDS011;396;52.558;13.188;2023-04-09T01:17:11;21.47;;;9.43;;
828;SDS011;396;52.558;13.188;2023-04-09T01:19:45;24.90;;;9.30;;
828;SDS011;396;52.558;13.188;2023-04-09T01:25:14;24.37;;;9.77;;
828;SDS011;396;52.558;13.188;2023-04-09T01:27:53;19.70;;;9.07;;
828;SDS011;396;52.558;13.188;2023-04-09T01:30:37;23.70;;;8.80;;
828;SDS011;396;52.558;13.188;2023-04-09T01:33:05;20.00;;;7.90;;
828;SDS011;396;52.558;13.188;2023-04-09T01:35:32;23.10;;;8.77;;
828;SDS011;396;52.558;13.188;2023-04-09T01:37:59;24.97;;;9.90;;
828;SDS011;396;52.558;13.188;2023-04-09T01:40:27;20.53;;;8.70;;
828;SDS011;396;52.558;13.188;2023-04-09T01:42:54;22.17;;;10.53;;
828;SDS011;396;52.558;13.188;2023-04-09T01:45:24;22.93;;;9.70;;
828;SDS011;396;52.558;13.188;2023-04-09T01:47:51;17.57;;;8.87;;
828;SDS011;396;52.558;13.188;2023-04-09T01:50:20;24.67;;;10.77;;
828;SDS011;396;52.558;13.188;2023-04-09T01:52:47;21.83;;;9.07;;
828;SDS011;396;52.558;13.188;2023-04-09T01:55:14;28.47;;;9.70;;
828;SDS011;396;52.558;13.188;2023-04-09T01:57:41;20.77;;;9.43;;
828;SDS011;396;52.558;13.188;2023-04-09T02:00:08;19.87;;;9.80;;
828;SDS011;396;52.558;13.188;2023-04-09T02:02:39;24.20;;;9.10;;
828;SDS011;396;52.558;13.188;2023-04-09T02:05:11;26.90;;;10.37;;
828;SDS011;396;52.558;13.188;2023-04-09T02:07:42;25.43;;;10.10;;
828;SDS011;396;52.558;13.188;2023-04-09T02:10:12;23.27;;;10.83;;
828;SDS011;396;52.558;13.188;2023-04-09T02:12:41;27.90;;;9.00;;
828;SDS011;396;52.558;13.188;2023-04-09T02:15:12;21.83;;;9.80;;
828;SDS011;396;52.558;13.188;2023-04-09T02:17:41;22.90;;;9.93;;
828;SDS011;396;52.558;13.188;2023-04-09T02:20:08;22.17;;;9.20;;
828;SDS011;396;52.558;13.188;2023-04-09T02:22:36;23.30;;;9.97;;
828;SDS011;396;52.558;13.188;2023-04-09T02:25:04;24.60;;;11.00;;
828;SDS011;396;52.558;13.188;2023-04-09T02:27:31;24.43;;;10.70;;
828;SDS011;396;52.558;13.188;2023-04-09T02:29:57;21.60;;;9.53;;
828;SDS011;396;52.558;13.188;2023-04-09T02:32:24;19.87;;;9.03;;
828;SDS011;396;52.558;13.188;2023-04-09T02:34:52;22.10;;;10.37;;
828;SDS011;396;52.558;13.188;2023-04-09T02:37:19;26.03;;;11.10;;
828;SDS011;396;52.558;13.188;2023-04-09T02:39:45;28.67;;;12.13;;
828;SDS011;396;52.558;13.188;2023-04-09T02:42:12;25.83;;;11.60;;
828;SDS011;396;52.558;13.188;2023-04-09T02:44:38;21.40;;;9.90;;
828;SDS011;396;52.558;13.188;2023-04-09T02:47:05;26.33;;;11.33;;
828;SDS011;396;52.558;13.188;2023-04-09T02:49:31;26.73;;;10.60;;
828;SDS011;396;52.558;13.188;2023-04-09T02:51:59;26.23;;;11.60;;
828;SDS011;396;52.558;13.188;2023-04-09T02:54:26;26.50;;;12.20;;
828;SDS011;396;52.558;13.188;2023-04-09T02:56:52;28.17;;;12.93;;
828;SDS011;396;52.558;13.188;2023-04-09T02:59:20;23.07;;;12.20;;
828;SDS011;396;52.558;13.188;2023-04-09T03:01:46;34.63;;;13.70;;
828;SDS011;396;52.558;13.188;2023-04-09T03:04:13;29.10;;;13.40;;
828;SDS011;396;52.558;13.188;2023-04-09T03:06:40;35.23;;;13.90;;
828;SDS011;396;52.558;13.188;2023-04-09T03:09:08;25.90;;;13.57;;
828;SDS011;396;52.558;13.188;2023-04-09T03:11:34;34.00;;;13.77;;
828;SDS011;396;52.558;13.188;2023-04-09T03:14:01;31.40;;;11.90;;
828;SDS011;396;52.558;13.188;2023-04-09T03:16:27;27.87;;;12.67;;
828;SDS011;396;52.558;13.188;2023-04-09T03:18:54;34.20;;;13.83;;
828;SDS011;396;52.558;13.188;2023-04-09T03:21:20;36.70;;;16.13;;
828;SDS011;396;52.558;13.188;2023-04-09T03:23:47;30.90;;;14.00;;
828;SDS011;396;52.558;13.188;2023-04-09T03:26:15;31.70;;;13.17;;
828;SDS011;396;52.558;13.188;2023-04-09T03:28:41;36.50;;;14.53;;
828;SDS011;396;52.558;13.188;2023-04-09T03:31:08;33.63;;;14.60;;
828;SDS011;396;52.558;13.188;2023-04-09T03:33:34;26.40;;;12.63;;
828;SDS011;396;52.558;13.188;2023-04-09T03:36:01;34.33;;;14.17;;
828;SDS011;396;52.558;13.188;2023-04-09T03:38:28;25.23;;;12.33;;
828;SDS011;396;52.558;13.188;2023-04-09T03:40:54;29.97;;;13.00;;
828;SDS011;396;52.558;13.188;2023-04-09T03:43:23;26.47;;;12.47;;
828;SDS011;396;52.558;13.188;2023-04-09T03:45:49;18.87;;;10.67;;
828;SDS011;396;52.558;13.188;2023-04-09T03:48:16;29.87;;;12.63;;
828;SDS011;396;52.558;13.188;2023-04-09T03:50:42;26.90;;;11.30;;
828;SDS011;396;52.558;13.188;2023-04-09T03:53:09;22.87;;;11.10;;
828;SDS011;396;52.558;13.188;2023-04-09T03:55:36;23.83;;;10.70;;
828;SDS011;396;52.558;13.188;2023-04-09T03:58:03;24.40;;;10.50;;
828;SDS011;396;52.558;13.188;2023-04-09T04:00:30;24.47;;;10.90;;
828;SDS011;396;52.558;13.188;2023-04-09T04:02:57;35.20;;;11.90;;
828;SDS011;396;52.558;13.188;2023-04-09T04:05:24;26.90;;;11.63;;
828;SDS011;396;52.558;13.188;2023-04-09T04:07:50;29.60;;;10.37;;
828;SDS011;396;52.558;13.188;2023-04-09T04:10:17;24.47;;;11.60;;
828;SDS011;396;52.558;13.188;2023-04-09T04:12:44;29.03;;;10.87;;
828;SDS011;396;52.558;13.188;2023-04-09T04:15:11;23.30;;;9.97;;
828;SDS011;396;52.558;13.188;2023-04-09T04:17:39;26.13;;;10.57;;
828;SDS011;396;52.558;13.188;2023-04-09T04:20:06;20.27;;;8.60;;
828;SDS011;396;52.558;13.188;2023-04-09T04:22:33;22.00;;;8.93;;
828;SDS011;396;52.558;13.188;2023-04-09T04:25:00;19.50;;;9.23;;
828;SDS011;396;52.558;13.188;2023-04-09T04:27:27;29.70;;;9.93;;
828;SDS011;396;52.558;13.188;2023-04-09T04:29:53;23.43;;;10.70;;
828;SDS011;396;52.558;13.188;2023-04-09T04:32:22;23.30;;;9.27;;
828;SDS011;396;52.558;13.188;2023-04-09T04:34:50;32.10;;;11.60;;
828;SDS011;396;52.558;13.188;2023-04-09T04:37:17;24.97;;;10.73;;
828;SDS011;396;52.558;13.188;2023-04-09T04:39:43;22.10;;;9.60;;
828;SDS011;396;52.558;13.188;2023-04-09T04:42:10;19.40;;;8.43;;
828;SDS011;396;52.558;13.188;2023-04-09T04:44:36;24.43;;;9.70;;
828;SDS011;396;52.558;13.188;2023-04-09T04:47:03;24.40;;;9.67;;
828;SDS011;396;52.558;13.188;2023-04-09T04:49:29;24.27;;;9.07;;
828;SDS011;396;52.558;13.188;2023-04-09T04:51:58;26.83;;;10.27;;
828;SDS011;396;52.558;13.188;2023-04-09T04:54:24;15.67;;;7.90;;
828;SDS011;396;52.558;13.188;2023-04-09T04:56:51;14.67;;;7.27;;
828;SDS011;396;52.558;13.188;2023-04-09T04:59:17;19.30;;;8.90;;
828;SDS011;396;52.558;13.188;2023-04-09T05:01:44;23.90;;;9.57;;
828;SDS011;396;52.558;13.188;2023-04-09T05:04:11;19.90;;;9.33;;
828;SDS011;396;52.558;13.188;2023-04-09T05:06:37;24.67;;;10.33;;
828;SDS011;396;52.558;13.188;2023-04-09T05:09:05;20.43;;;8.97;;
828;SDS011;396;52.558;13.188;2023-04-09T05:11:32;20.40;;;8.20;;
828;SDS011;396;52.558;13.188;2023-04-09T05:13:58;19.00;;;8.00;;
828;SDS011;396;52.558;13.188;2023-04-09T05:16:25;21.20;;;9.83;;
828;SDS011;396;52.558;13.188;2023-04-09T05:18:52;19.83;;;9.20;;
828;SDS011;396;52.558;13.188;2023-04-09T05:21:18;21.73;;;9.47;;
828;SDS011;396;52.558;13.188;2023-04-09T05:23:45;24.63;;;9.90;;
828;SDS011;396;52.558;13.188;2023-04-09T05:26:13;24.27;;;9.90;;
828;SDS011;396;52.558;13.188;2023-04-09T05:28:39;20.37;;;9.13;;
828;SDS011;396;52.558;13.188;2023-04-09T05:31:06;26.37;;;9.90;;
828;SDS011;396;52.558;13.188;2023-04-09T05:33:36;28.33;;;10.00;;
828;SDS011;396;52.558;13.188;2023-04-09T05:36:03;21.90;;;9.43;;
828;SDS011;396;52.558;13.188;2023-04-09T05:38:30;25.50;;;9.00;;
828;SDS011;396;52.558;13.188;2023-04-09T05:40:57;20.07;;;8.60;;
828;SDS011;396;52.558;13.188;2023-04-09T05:43:25;28.27;;;10.57;;
828;SDS011;396;52.558;13.188;2023-04-09T05:45:52;25.77;;;10.93;;
828;SDS011;396;52.558;13.188;2023-04-09T05:48:18;19.17;;;10.00;;
828;SDS011;396;52.558;13.188;2023-04-09T05:50:47;24.47;;;11.47;;
828;SDS011;396;52.558;13.188;2023-04-09T05:53:16;21.87;;;8.70;;
828;SDS011;396;52.558;13.188;2023-04-09T05:55:42;21.17;;;10.30;;
828;SDS011;396;52.558;13.188;2023-04-09T05:58:09;20.20;;;9.37;;
828;SDS011;396;52.558;13.188;2023-04-09T06:00:37;18.10;;;9.43;;
828;SDS011;396;52.558;13.188;2023-04-09T06:03:04;22.80;;;10.03;;
828;SDS011;396;52.558;13.188;2023-04-09T06:05:30;29.20;;;10.83;;
828;SDS011;396;52.558;13.188;2023-04-09T06:07:57;30.63;;;10.70;;
828;SDS011;396;52.558;13.188;2023-04-09T06:10:23;22.60;;;10.70;;
828;SDS011;396;52.558;13.188;2023-04-09T06:12:50;27.50;;;10.50;;
828;SDS011;396;52.558;13.188;2023-04-09T06:15:17;34.20;;;12.20;;
828;SDS011;396;52.558;13.188;2023-04-09T06:17:45;35.37;;;13.87;;
828;SDS011;396;52.558;13.188;2023-04-09T06:20:11;29.40;;;12.30;;
828;SDS011;396;52.558;13.188;2023-04-09T06:22:38;34.17;;;11.67;;
828;SDS011;396;52.558;13.188;2023-04-09T06:25:05;23.87;;;10.47;;
828;SDS011;396;52.558;13.188;2023-04-09T06:27:32;21.70;;;10.13;;
828;SDS011;396;52.558;13.188;2023-04-09T06:29:59;26.27;;;9.70;;
828;SDS011;396;52.558;13.188;2023-04-09T06:32:25;24.03;;;10.30;;
828;SDS011;396;52.558;13.188;2023-04-09T06:34:53;31.50;;;13.00;;
828;SDS011;396;52.558;13.188;2023-04-09T06:37:20;34.13;;;12.67;;
828;SDS011;396;52.558;13.188;2023-04-09T06:39:46;24.87;;;11.67;;
828;SDS011;396;52.558;13.188;2023-04-09T06:42:13;25.70;;;11.83;;
828;SDS011;396;52.558;13.188;2023-04-09T06:44:39;26.80;;;12.20;;
828;SDS011;396;52.558;13.188;2023-04-09T06:47:06;36.77;;;13.27;;
828;SDS011;396;52.558;13.188;2023-04-09T06:49:33;28.10;;;10.53;;
828;SDS011;396;52.558;13.188;2023-04-09T06:52:01;25.37;;;11.50;;
828;SDS011;396;52.558;13.188;2023-04-09T06:54:27;28.67;;;11.97;;
828;SDS011;396;52.558;13.188;2023-04-09T06:56:54;27.60;;;10.60;;
828;SDS011;396;52.558;13.188;2023-04-09T06:59:21;34.40;;;12.10;;
828;SDS011;396;52.558;13.188;2023-04-09T07:01:47;23.30;;;11.17;;
828;SDS011;396;52.558;13.188;2023-04-09T07:04:14;39.07;;;13.77;;
828;SDS011;396;52.558;13.188;2023-04-09T07:06:41;25.37;;;10.70;;
828;SDS011;396;52.558;13.188;2023-04-09T07:09:08;29.83;;;12.23;;
828;SDS011;396;52.558;13.188;2023-04-09T07:11:35;31.60;;;13.23;;
828;SDS011;396;52.558;13.188;2023-04-09T07:14:02;30.70;;;13.43;;
828;SDS011;396;52.558;13.188;2023-04-09T07:16:28;34.87;;;13.27;;
828;SDS011;396;52.558;13.188;2023-04-09T07:18:55;31.00;;;12.40;;
828;SDS011;396;52.558;13.188;2023-04-09T07:21:21;33.13;;;15.50;;
828;SDS011;396;52.558;13.188;2023-04-09T07:23:48;38.07;;;13.10;;
828;SDS011;396;52.558;13.188;2023-04-09T07:26:16;39.50;;;13.67;;
828;SDS011;396;52.558;13.188;2023-04-09T07:28:42;34.03;;;11.73;;
828;SDS011;396;52.558;13.188;2023-04-09T07:31:09;33.73;;;12.30;;
828;SDS011;396;52.558;13.188;2023-04-09T07:33:36;27.60;;;11.77;;
828;SDS011;396;52.558;13.188;2023-04-09T07:36:03;29.93;;;14.17;;
828;SDS011;396;52.558;13.188;2023-04-09T07:38:30;30.00;;;12.73;;
828;SDS011;396;52.558;13.188;2023-04-09T07:40:57;31.80;;;13.50;;
828;SDS011;396;52.558;13.188;2023-04-09T07:43:25;27.60;;;12.30;;
828;SDS011;396;52.558;13.188;2023-04-09T07:45:52;21.73;;;11.90;;
828;SDS011;396;52.558;13.188;2023-04-09T07:48:19;28.03;;;11.90;;
828;SDS011;396;52.558;13.188;2023-04-09T07:50:45;26.60;;;11.27;;
828;SDS011;396;52.558;13.188;2023-04-09T07:53:12;34.47;;;13.33;;
828;SDS011;396;52.558;13.188;2023-04-09T07:55:38;31.40;;;13.57;;
828;SDS011;396;52.558;13.188;2023-04-09T07:58:05;31.60;;;13.13;;
828;SDS011;396;52.558;13.188;2023-04-09T08:00:33;27.40;;;14.23;;
828;SDS011;396;52.558;13.188;2023-04-09T08:03:00;31.20;;;13.03;;
828;SDS011;396;52.558;13.188;2023-04-09T08:05:27;27.80;;;13.50;;
828;SDS011;396;52.558;13.188;2023-04-09T08:07:54;28.83;;;12.07;;
828;SDS011;396;52.558;13.188;2023-04-09T08:10:21;33.40;;;12.60;;
828;SDS011;396;52.558;13.188;2023-04-09T08:12:48;37.10;;;14.30;;
828;SDS011;396;52.558;13.188;2023-04-09T08:15:15;32.07;;;11.40;;
828;SDS011;396;52.558;13.188;2023-04-09T08:17:43;32.80;;;12.47;;
828;SDS011;396;52.558;13.188;2023-04-09T08:20:10;27.40;;;14.27;;
828;SDS011;396;52.558;13.188;2023-04-09T08:22:37;28.17;;;11.93;;
828;SDS011;396;52.558;13.188;2023-04-09T08:25:05;29.50;;;13.10;;
828;SDS011;396;52.558;13.188;2023-04-09T08:27:32;27.33;;;12.37;;
828;SDS011;396;52.558;13.188;2023-04-09T08:30:00;29.47;;;12.90;;
828;SDS011;396;52.558;13.188;2023-04-09T08:32:28;35.93;;;14.13;;
828;SDS011;396;52.558;13.188;2023-04-09T08:34:55;31.53;;;12.70;;
828;SDS011;396;52.558;13.188;2023-04-09T08:37:22;30.33;;;12.37;;
828;SDS011;396;52.558;13.188;2023-04-09T08:39:48;26.97;;;12.40;;
828;SDS011;396;52.558;13.188;2023-04-09T08:42:15;30.97;;;13.10;;
828;SDS011;396;52.558;13.188;2023-04-09T08:44:43;31.53;;;13.40;;
828;SDS011;396;52.558;13.188;2023-04-09T08:47:10;30.03;;;14.17;;
828;SDS011;396;52.558;13.188;2023-04-09T08:49:38;35.60;;;12.57;;
828;SDS011;396;52.558;13.188;2023-04-09T08:52:06;26.73;;;12.57;;
828;SDS011;396;52.558;13.188;2023-04-09T08:54:33;32.97;;;12.57;;
828;SDS011;396;52.558;13.188;2023-04-09T08:57:03;32.50;;;13.03;;
828;SDS011;396;52.558;13.188;2023-04-09T08:59:30;31.93;;;13.00;;
828;SDS011;396;52.558;13.188;2023-04-09T09:02:07;29.90;;;13.90;;
828;SDS011;396;52.558;13.188;2023-04-09T09:04:44;29.33;;;12.90;;
828;SDS011;396;52.558;13.188;2023-04-09T09:07:13;33.97;;;13.77;;
828;SDS011;396;52.558;13.188;2023-04-09T09:09:49;26.60;;;11.90;;
828;SDS011;396;52.558;13.188;2023-04-09T09:12:29;27.57;;;12.93;;
828;SDS011;396;52.558;13.188;2023-04-09T09:14:57;30.73;;;13.20;;
828;SDS011;396;52.558;13.188;2023-04-09T09:17:23;35.07;;;13.13;;
828;SDS011;396;52.558;13.188;2023-04-09T09:19:50;39.33;;;14.10;;
828;SDS011;396;52.558;13.188;2023-04-09T09:22:18;29.33;;;14.67;;
828;SDS011;396;52.558;13.188;2023-04-09T09:24:45;35.60;;;15.47;;
828;SDS011;396;52.558;13.188;2023-04-09T09:27:13;30.57;;;13.23;;
828;SDS011;396;52.558;13.188;2023-04-09T09:29:56;27.70;;;13.07;;
828;SDS011;396;52.558;13.188;2023-04-09T09:32:23;30.23;;;12.60;;
828;SDS011;396;52.558;13.188;2023-04-09T09:34:56;31.63;;;13.70;;
828;SDS011;396;52.558;13.188;2023-04-09T09:37:28;27.60;;;12.23;;
828;SDS011;396;52.558;13.188;2023-04-09T09:39:55;27.63;;;12.60;;
828;SDS011;396;52.558;13.188;2023-04-09T09:42:21;30.83;;;12.60;;
828;SDS011;396;52.558;13.188;2023-04-09T09:44:48;29.87;;;12.00;;
828;SDS011;396;52.558;13.188;2023-04-09T09:47:16;27.20;;;12.60;;
828;SDS011;396;52.558;13.188;2023-04-09T09:49:43;30.57;;;12.70;;
828;SDS011;396;52.558;13.188;2023-04-09T09:52:10;28.10;;;11.90;;
828;SDS011;396;52.558;13.188;2023-04-09T09:54:39;32.57;;;13.83;;
828;SDS011;396;52.558;13.188;2023-04-09T09:57:08;22.50;;;11.17;;
828;SDS011;396;52.558;13.188;2023-04-09T09:59:38;26.70;;;12.80;;
828;SDS011;396;52.558;13.188;2023-04-09T10:02:10;24.10;;;12.23;;
828;SDS011;396;52.558;13.188;2023-04-09T10:04:44;30.90;;;11.80;;
828;SDS011;396;52.558;13.188;2023-04-09T10:07:10;27.73;;;12.00;;
828;SDS011;396;52.558;13.188;2023-04-09T10:09:41;27.93;;;11.70;;
828;SDS011;396;52.558;13.188;2023-04-09T10:12:13;28.00;;;12.37;;
828;SDS011;396;52.558;13.188;2023-04-09T10:14:40;28.07;;;12.17;;
828;SDS011;396;52.558;13.188;2023-04-09T10:17:07;29.60;;;12.60;;
828;SDS011;396;52.558;13.188;2023-04-09T10:19:35;31.90;;;13.00;;
828;SDS011;396;52.558;13.188;2023-04-09T10:22:06;33.50;;;14.50;;
828;SDS011;396;52.558;13.188;2023-04-09T10:24:35;28.30;;;13.50;;
828;SDS011;396;52.558;13.188;2023-04-09T10:27:09;30.60;;;13.20;;
828;SDS011;396;52.558;13.188;2023-04-09T10:29:41;27.93;;;12.17;;
828;SDS011;396;52.558;13.188;2023-04-09T10:32:09;34.30;;;11.83;;
828;SDS011;396;52.558;13.188;2023-04-09T10:34:37;30.47;;;13.40;;
828;SDS011;396;52.558;13.188;2023-04-09T10:37:05;28.40;;;12.13;;
828;SDS011;396;52.558;13.188;2023-04-09T10:39:33;21.97;;;11.17;;
828;SDS011;396;52.558;13.188;2023-04-09T10:42:06;35.27;;;12.13;;
828;SDS011;396;52.558;13.188;2023-04-09T10:44:38;29.17;;;13.03;;
828;SDS011;396;52.558;13.188;2023-04-09T10:47:07;24.67;;;11.57;;
828;SDS011;396;52.558;13.188;2023-04-09T10:49:35;29.90;;;11.20;;
828;SDS011;396;52.558;13.188;2023-04-09T10:52:03;25.77;;;10.83;;
828;SDS011;396;52.558;13.188;2023-04-09T10:54:43;30.07;;;11.07;;
828;SDS011;396;52.558;13.188;2023-04-09T10:57:21;24.77;;;10.67;;
828;SDS011;396;52.558;13.188;2023-04-09T10:59:49;23.10;;;10.50;;
828;SDS011;396;52.558;13.188;2023-04-09T11:05:35;22.23;;;9.73;;
828;SDS011;396;52.558;13.188;2023-04-09T11:08:03;24.73;;;10.13;;
828;SDS011;396;52.558;13.188;2023-04-09T11:10:32;27.63;;;9.27;;
828;SDS011;396;52.558;13.188;2023-04-09T11:13:00;21.40;;;9.30;;
828;SDS011;396;52.558;13.188;2023-04-09T11:15:27;27.73;;;10.73;;
828;SDS011;396;52.558;13.188;2023-04-09T11:17:54;21.10;;;10.10;;
828;SDS011;396;52.558;13.188;2023-04-09T11:20:23;30.90;;;12.00;;
828;SDS011;396;52.558;13.188;2023-04-09T11:22:51;25.80;;;10.10;;
828;SDS011;396;52.558;13.188;2023-04-09T11:25:19;26.67;;;10.17;;
828;SDS011;396;52.558;13.188;2023-04-09T11:27:46;19.20;;;8.13;;
828;SDS011;396;52.558;13.188;2023-04-09T11:30:15;15.33;;;7.07;;
828;SDS011;396;52.558;13.188;2023-04-09T11:32:41;18.40;;;9.00;;
828;SDS011;396;52.558;13.188;2023-04-09T11:35:11;22.60;;;8.90;;
828;SDS011;396;52.558;13.188;2023-04-09T11:37:40;15.90;;;8.30;;
828;SDS011;396;52.558;13.188;2023-04-09T11:40:12;20.20;;;8.23;;
828;SDS011;396;52.558;13.188;2023-04-09T11:42:41;21.00;;;7.77;;
828;SDS011;396;52.558;13.188;2023-04-09T11:45:08;16.33;;;7.60;;
828;SDS011;396;52.558;13.188;2023-04-09T11:47:37;22.97;;;8.47;;
828;SDS011;396;52.558;13.188;2023-04-09T11:50:06;20.83;;;7.90;;
828;SDS011;396;52.558;13.188;2023-04-09T11:52:34;19.20;;;8.50;;
828;SDS011;396;52.558;13.188;2023-04-09T11:55:00;22.93;;;8.30;;
828;SDS011;396;52.558;13.188;2023-04-09T11:57:41;22.47;;;9.30;;
828;SDS011;396;52.558;13.188;2023-04-09T12:00:09;17.43;;;7.97;;
828;SDS011;396;52.558;13.188;2023-04-09T12:02:39;13.07;;;6.47;;
828;SDS011;396;52.558;13.188;2023-04-09T12:05:10;15.80;;;7.50;;
828;SDS011;396;52.558;13.188;2023-04-09T12:07:38;17.20;;;7.97;;
828;SDS011;396;52.558;13.188;2023-04-09T12:10:06;19.63;;;8.37;;
828;SDS011;396;52.558;13.188;2023-04-09T12:12:40;17.73;;;9.00;;
828;SDS011;396;52.558;13.188;2023-04-09T12:15:16;13.17;;;7.60;;
828;SDS011;396;52.558;13.188;2023-04-09T12:17:49;23.63;;;7.80;;
828;SDS011;396;52.558;13.188;2023-04-09T12:20:28;14.30;;;7.20;;
828;SDS011;396;52.558;13.188;2023-04-09T12:22:56;15.13;;;6.50;;
828;SDS011;396;52.558;13.188;2023-04-09T12:25:24;14.80;;;5.70;;
828;SDS011;396;52.558;13.188;2023-04-09T12:27:50;16.50;;;6.57;;
828;SDS011;396;52.558;13.188;2023-04-09T12:30:18;12.47;;;6.07;;
828;SDS011;396;52.558;13.188;2023-04-09T12:32:45;19.17;;;7.60;;
828;SDS011;396;52.558;13.188;2023-04-09T12:35:13;15.53;;;7.20;;
828;SDS011;396;52.558;13.188;2023-04-09T12:37:40;18.30;;;7.10;;
828;SDS011;396;52.558;13.188;2023-04-09T12:40:07;16.93;;;6.63;;
828;SDS011;396;52.558;13.188;2023-04-09T12:42:37;15.00;;;6.40;;
828;SDS011;396;52.558;13.188;2023-04-09T12:45:03;14.00;;;5.80;;
828;SDS011;396;52.558;13.188;2023-04-09T12:47:31;15.60;;;6.07;;
828;SDS011;396;52.558;13.188;2023-04-09T12:49:58;12.67;;;5.47;;
828;SDS011;396;52.558;13.188;2023-04-09T12:52:26;17.83;;;6.50;;
828;SDS011;396;52.558;13.188;2023-04-09T12:54:52;15.37;;;6.37;;
828;SDS011;396;52.558;13.188;2023-04-09T12:57:19;18.27;;;5.40;;
828;SDS011;396;52.558;13.188;2023-04-09T12:59:46;16.70;;;6.03;;
828;SDS011;396;52.558;13.188;2023-04-09T13:02:12;11.27;;;5.20;;
828;SDS011;396;52.558;13.188;2023-04-09T13:04:39;13.37;;;5.83;;
828;SDS011;396;52.558;13.188;2023-04-09T13:07:05;11.47;;;5.43;;
828;SDS011;396;52.558;13.188;2023-04-09T13:09:33;16.70;;;6.13;;
828;SDS011;396;52.558;13.188;2023-04-09T13:12:00;12.60;;;5.33;;
828;SDS011;396;52.558;13.188;2023-04-09T13:14:27;14.13;;;5.27;;
828;SDS011;396;52.558;13.188;2023-04-09T13:16:53;14.40;;;6.33;;
828;SDS011;396;52.558;13.188;2023-04-09T13:19:20;14.63;;;7.23;;
828;SDS011;396;52.558;13.188;2023-04-09T13:21:46;12.97;;;5.10;;
828;SDS011;396;52.558;13.188;2023-04-09T13:24:13;15.47;;;6.07;;
828;SDS011;396;52.558;13.188;2023-04-09T13:26:41;12.20;;;5.27;;
828;SDS011;396;52.558;13.188;2023-04-09T13:29:08;10.23;;;4.70;;
828;SDS011;396;52.558;13.188;2023-04-09T13:31:34;21.43;;;6.53;;
828;SDS011;396;52.558;13.188;2023-04-09T13:34:01;15.57;;;5.60;;
828;SDS011;396;52.558;13.188;2023-04-09T13:36:28;16.27;;;6.40;;
828;SDS011;396;52.558;13.188;2023-04-09T13:38:55;13.70;;;5.17;;
828;SDS011;396;52.558;13.188;2023-04-09T13:41:28;13.90;;;5.30;;
828;SDS011;396;52.558;13.188;2023-04-09T13:43:56;12.80;;;5.30;;
828;SDS011;396;52.558;13.188;2023-04-09T13:46:23;11.83;;;5.10;;
828;SDS011;396;52.558;13.188;2023-04-09T13:48:49;11.77;;;5.13;;
828;SDS011;396;52.558;13.188;2023-04-09T13:51:16;12.63;;;4.30;;
828;SDS011;396;52.558;13.188;2023-04-09T13:53:42;8.87;;;4.33;;
828;SDS011;396;52.558;13.188;2023-04-09T13:56:09;9.43;;;4.23;;
828;SDS011;396;52.558;13.188;2023-04-09T13:58:36;12.83;;;6.33;;
828;SDS011;396;52.558;13.188;2023-04-09T14:01:04;11.57;;;6.10;;
828;SDS011;396;52.558;13.188;2023-04-09T14:03:31;14.60;;;6.37;;
828;SDS011;396;52.558;13.188;2023-04-09T14:05:58;15.37;;;5.73;;
828;SDS011;396;52.558;13.188;2023-04-09T14:08:25;11.07;;;5.67;;
828;SDS011;396;52.558;13.188;2023-04-09T14:10:52;16.40;;;6.53;;
828;SDS011;396;52.558;13.188;2023-04-09T14:13:18;16.73;;;6.53;;
828;SDS011;396;52.558;13.188;2023-04-09T14:15:45;15.50;;;6.87;;
828;SDS011;396;52.558;13.188;2023-04-09T14:18:13;17.53;;;5.60;;
828;SDS011;396;52.558;13.188;2023-04-09T14:20:40;19.03;;;5.23;;
828;SDS011;396;52.558;13.188;2023-04-09T14:23:06;12.17;;;5.20;;
828;SDS011;396;52.558;13.188;2023-04-09T14:25:33;13.33;;;5.83;;
828;SDS011;396;52.558;13.188;2023-04-09T14:27:59;12.90;;;5.40;;
828;SDS011;396;52.558;13.188;2023-04-09T14:30:26;12.40;;;5.90;;
828;SDS011;396;52.558;13.188;2023-04-09T14:32:53;12.67;;;4.70;;
828;SDS011;396;52.558;13.188;2023-04-09T14:35:21;14.47;;;6.77;;
828;SDS011;396;52.558;13.188;2023-04-09T14:37:47;13.03;;;4.53;;
828;SDS011;396;52.558;13.188;2023-04-09T14:40:14;14.80;;;6.13;;
828;SDS011;396;52.558;13.188;2023-04-09T14:42:41;16.10;;;6.13;;
828;SDS011;396;52.558;13.188;2023-04-09T14:45:07;12.00;;;5.70;;
828;SDS011;396;52.558;13.188;2023-04-09T14:47:35;11.23;;;5.10;;
828;SDS011;396;52.558;13.188;2023-04-09T14:50:01;13.10;;;6.40;;
828;SDS011;396;52.558;13.188;2023-04-09T14:52:29;19.33;;;7.07;;
828;SDS011;396;52.558;13.188;2023-04-09T14:54:56;14.40;;;6.00;;
828;SDS011;396;52.558;13.188;2023-04-09T14:57:23;11.70;;;5.07;;
828;SDS011;396;52.558;13.188;2023-04-09T14:59:50;18.13;;;7.80;;
828;SDS011;396;52.558;13.188;2023-04-09T15:02:16;16.43;;;6.83;;
828;SDS011;396;52.558;13.188;2023-04-09T15:04:43;21.33;;;6.33;;
828;SDS011;396;52.558;13.188;2023-04-09T15:07:09;12.50;;;5.10;;
828;SDS011;396;52.558;13.188;2023-04-09T15:09:38;15.43;;;5.50;;
828;SDS011;396;52.558;13.188;2023-04-09T15:12:04;12.17;;;5.53;;
828;SDS011;396;52.558;13.188;2023-04-09T15:14:32;17.13;;;6.93;;
828;SDS011;396;52.558;13.188;2023-04-09T15:16:59;15.93;;;7.00;;